sensor_id;sensor_type;location;lat;lon;timestamp;pressure;altitude;pressure_sealevel;temperature
51149;BMP280;37210;50.058;8.688;2023-06-24T00:01:47;101040.84;;;20.97
51149;BMP280;37210;50.058;8.688;2023-06-24T00:04:16;101037.59;;;21.18
51149;BMP280;37210;50.058;8.688;2023-06-24T00:06:46;101037.16;;;21.03
51149;BMP280;37210;50.058;8.688;2023-06-24T00:09:14;101022.88;;;21.07
51149;BMP280;37210;50.058;8.688;2023-06-24T00:11:41;101036.06;;;21.10
51149;BMP280;37210;50.058;8.688;2023-06-24T00:14:08;101034.38;;;21.07
51149;BMP280;37210;50.058;8.688;2023-06-24T00:16:36;101054.94;;;21.02
51149;BMP280;37210;50.058;8.688;2023-06-24T00:19:04;101051.66;;;21.22
51149;BMP280;37210;50.058;8.688;2023-06-24T00:21:34;101058.28;;;21.09
51149;BMP280;37210;50.058;8.688;2023-06-24T00:24:03;101051.97;;;21.11
51149;BMP280;37210;50.058;8.688;2023-06-24T00:26:31;101034.97;;;21.17
51149;BMP280;37210;50.058;8.688;2023-06-24T00:28:59;101040.09;;;21.23
51149;BMP280;37210;50.058;8.688;2023-06-24T00:31:26;101046.44;;;21.19
51149;BMP280;37210;50.058;8.688;2023-06-24T00:33:53;101044.78;;;20.84
51149;BMP280;37210;50.058;8.688;2023-06-24T00:36:21;101036.97;;;20.80
51149;BMP280;37210;50.058;8.688;2023-06-24T00:38:50;101028.59;;;20.62
51149;BMP280;37210;50.058;8.688;2023-06-24T00:41:18;101015.31;;;20.62
51149;BMP280;37210;50.058;8.688;2023-06-24T00:43:46;101050.81;;;20.91
51149;BMP280;37210;50.058;8.688;2023-06-24T00:46:14;101056.03;;;20.94
51149;BMP280;37210;50.058;8.688;2023-06-24T00:48:41;101053.88;;;20.77
51149;BMP280;37210;50.058;8.688;2023-06-24T00:51:09;101042.66;;;20.66
51149;BMP280;37210;50.058;8.688;2023-06-24T00:53:36;101048.44;;;20.82
51149;BMP280;37210;50.058;8.688;2023-06-24T00:56:06;101047.56;;;20.81
51149;BMP280;37210;50.058;8.688;2023-06-24T00:58:35;101031.94;;;20.38
51149;BMP280;37210;50.058;8.688;2023-06-24T01:01:05;101036.16;;;20.78
51149;BMP280;37210;50.058;8.688;2023-06-24T01:03:34;101043.69;;;20.62
51149;BMP280;37210;50.058;8.688;2023-06-24T01:06:04;101039.75;;;20.75
51149;BMP280;37210;50.058;8.688;2023-06-24T01:08:37;101044.84;;;20.83
51149;BMP280;37210;50.058;8.688;2023-06-24T01:11:10;101041.78;;;20.65
51149;BMP280;37210;50.058;8.688;2023-06-24T01:13:38;101045.28;;;20.67
51149;BMP280;37210;50.058;8.688;2023-06-24T01:16:10;101033.88;;;20.32
51149;BMP280;37210;50.058;8.688;2023-06-24T01:18:52;101052.94;;;20.47
51149;BMP280;37210;50.058;8.688;2023-06-24T01:21:35;101061.72;;;19.83
51149;BMP280;37210;50.058;8.688;2023-06-24T01:24:31;101013.03;;;20.17
51149;BMP280;37210;50.058;8.688;2023-06-24T01:27:37;101058.59;;;20.35
51149;BMP280;37210;50.058;8.688;2023-06-24T01:30:32;101060.56;;;20.29
51149;BMP280;37210;50.058;8.688;2023-06-24T01:33:12;101056.50;;;20.46
51149;BMP280;37210;50.058;8.688;2023-06-24T01:35:47;101062.50;;;20.22
51149;BMP280;37210;50.058;8.688;2023-06-24T01:38:22;101070.09;;;20.02
51149;BMP280;37210;50.058;8.688;2023-06-24T01:40:54;101068.50;;;19.95
51149;BMP280;37210;50.058;8.688;2023-06-24T01:43:23;101039.88;;;20.06
51149;BMP280;37210;50.058;8.688;2023-06-24T01:45:54;101051.91;;;20.21
51149;BMP280;37210;50.058;8.688;2023-06-24T01:48:28;101059.44;;;20.37
51149;BMP280;37210;50.058;8.688;2023-06-24T01:51:01;101057.66;;;20.38
51149;BMP280;37210;50.058;8.688;2023-06-24T01:53:34;101055.13;;;20.32
51149;BMP280;37210;50.058;8.688;2023-06-24T01:56:07;101046.44;;;20.27
51149;BMP280;37210;50.058;8.688;2023-06-24T01:58:38;101061.16;;;20.38
51149;BMP280;37210;50.058;8.688;2023-06-24T02:01:09;101061.38;;;20.31
51149;BMP280;37210;50.058;8.688;2023-06-24T02:03:41;101070.00;;;20.39
51149;BMP280;37210;50.058;8.688;2023-06-24T02:06:09;101072.63;;;20.40
51149;BMP280;37210;50.058;8.688;2023-06-24T02:08:40;101080.88;;;20.31
51149;BMP280;37210;50.058;8.688;2023-06-24T02:11:11;101075.44;;;20.34
51149;BMP280;37210;50.058;8.688;2023-06-24T02:13:42;101078.22;;;19.96
51149;BMP280;37210;50.058;8.688;2023-06-24T02:16:16;101062.47;;;19.52
51149;BMP280;37210;50.058;8.688;2023-06-24T02:18:47;101070.59;;;19.44
51149;BMP280;37210;50.058;8.688;2023-06-24T02:21:17;101061.94;;;19.36
51149;BMP280;37210;50.058;8.688;2023-06-24T02:23:46;101062.03;;;19.70
51149;BMP280;37210;50.058;8.688;2023-06-24T02:26:14;101066.97;;;19.85
51149;BMP280;37210;50.058;8.688;2023-06-24T02:28:44;101070.25;;;19.96
51149;BMP280;37210;50.058;8.688;2023-06-24T02:31:12;101045.72;;;19.85
51149;BMP280;37210;50.058;8.688;2023-06-24T02:33:42;101060.50;;;19.95
51149;BMP280;37210;50.058;8.688;2023-06-24T02:36:12;101058.19;;;19.83
51149;BMP280;37210;50.058;8.688;2023-06-24T02:38:39;101068.38;;;19.64
51149;BMP280;37210;50.058;8.688;2023-06-24T02:41:06;101059.91;;;19.85
51149;BMP280;37210;50.058;8.688;2023-06-24T02:43:34;101069.78;;;19.79
51149;BMP280;37210;50.058;8.688;2023-06-24T02:46:05;101059.13;;;19.80
51149;BMP280;37210;50.058;8.688;2023-06-24T02:48:36;101048.59;;;19.77
51149;BMP280;37210;50.058;8.688;2023-06-24T02:51:07;101061.13;;;19.71
51149;BMP280;37210;50.058;8.688;2023-06-24T02:53:38;101068.06;;;19.76
51149;BMP280;37210;50.058;8.688;2023-06-24T02:56:08;101008.75;;;19.42
51149;BMP280;37210;50.058;8.688;2023-06-24T02:58:38;101077.47;;;19.54
51149;BMP280;37210;50.058;8.688;2023-06-24T03:01:26;101068.47;;;19.60
51149;BMP280;37210;50.058;8.688;2023-06-24T03:03:56;101067.69;;;19.56
51149;BMP280;37210;50.058;8.688;2023-06-24T03:06:24;101049.50;;;19.40
51149;BMP280;37210;50.058;8.688;2023-06-24T03:08:58;101048.38;;;19.50
51149;BMP280;37210;50.058;8.688;2023-06-24T03:11:26;101045.78;;;19.47
51149;BMP280;37210;50.058;8.688;2023-06-24T03:13:55;101060.72;;;19.52
51149;BMP280;37210;50.058;8.688;2023-06-24T03:16:30;101021.16;;;19.40
51149;BMP280;37210;50.058;8.688;2023-06-24T03:19:16;101067.75;;;19.53
51149;BMP280;37210;50.058;8.688;2023-06-24T03:21:44;101065.56;;;19.34
51149;BMP280;37210;50.058;8.688;2023-06-24T03:24:15;101066.06;;;19.49
51149;BMP280;37210;50.058;8.688;2023-06-24T03:26:47;101060.81;;;19.46
51149;BMP280;37210;50.058;8.688;2023-06-24T03:29:17;101068.09;;;19.38
51149;BMP280;37210;50.058;8.688;2023-06-24T03:31:54;101065.63;;;19.29
51149;BMP280;37210;50.058;8.688;2023-06-24T03:34:24;101061.22;;;19.28
51149;BMP280;37210;50.058;8.688;2023-06-24T03:36:53;101072.47;;;19.41
51149;BMP280;37210;50.058;8.688;2023-06-24T03:39:22;101076.00;;;19.41
51149;BMP280;37210;50.058;8.688;2023-06-24T03:41:50;101070.84;;;19.35
51149;BMP280;37210;50.058;8.688;2023-06-24T03:44:17;101056.19;;;18.76
51149;BMP280;37210;50.058;8.688;2023-06-24T03:46:46;101050.38;;;18.99
51149;BMP280;37210;50.058;8.688;2023-06-24T03:49:13;101066.84;;;19.14
51149;BMP280;37210;50.058;8.688;2023-06-24T03:51:41;101075.66;;;19.17
51149;BMP280;37210;50.058;8.688;2023-06-24T03:54:09;101080.78;;;19.24
51149;BMP280;37210;50.058;8.688;2023-06-24T03:56:37;101077.03;;;19.36
51149;BMP280;37210;50.058;8.688;2023-06-24T03:59:05;101085.72;;;19.41
51149;BMP280;37210;50.058;8.688;2023-06-24T04:01:33;101073.53;;;19.34
51149;BMP280;37210;50.058;8.688;2023-06-24T04:04:02;101085.03;;;19.31
51149;BMP280;37210;50.058;8.688;2023-06-24T04:06:29;101087.69;;;19.31
51149;BMP280;37210;50.058;8.688;2023-06-24T04:08:57;101072.06;;;19.19
51149;BMP280;37210;50.058;8.688;2023-06-24T04:11:24;101094.91;;;19.25
51149;BMP280;37210;50.058;8.688;2023-06-24T04:13:53;101082.63;;;19.21
51149;BMP280;37210;50.058;8.688;2023-06-24T04:16:20;101093.34;;;19.16
51149;BMP280;37210;50.058;8.688;2023-06-24T04:18:48;101087.16;;;19.15
51149;BMP280;37210;50.058;8.688;2023-06-24T04:21:15;101093.97;;;18.86
51149;BMP280;37210;50.058;8.688;2023-06-24T04:23:43;101067.34;;;18.92
51149;BMP280;37210;50.058;8.688;2023-06-24T04:26:10;101107.91;;;18.95
51149;BMP280;37210;50.058;8.688;2023-06-24T04:28:38;101089.00;;;19.12
51149;BMP280;37210;50.058;8.688;2023-06-24T04:31:07;101102.88;;;19.25
51149;BMP280;37210;50.058;8.688;2023-06-24T04:33:34;101105.66;;;19.19
51149;BMP280;37210;50.058;8.688;2023-06-24T04:36:03;101097.34;;;19.73
51149;BMP280;37210;50.058;8.688;2023-06-24T04:38:32;101097.09;;;19.47
51149;BMP280;37210;50.058;8.688;2023-06-24T04:41:00;101096.44;;;20.10
51149;BMP280;37210;50.058;8.688;2023-06-24T04:43:28;101106.75;;;19.86
51149;BMP280;37210;50.058;8.688;2023-06-24T04:45:55;101034.50;;;19.74
51149;BMP280;37210;50.058;8.688;2023-06-24T04:48:24;101102.03;;;20.34
51149;BMP280;37210;50.058;8.688;2023-06-24T04:50:52;101087.44;;;20.49
51149;BMP280;37210;50.058;8.688;2023-06-24T04:53:20;101116.78;;;20.46
51149;BMP280;37210;50.058;8.688;2023-06-24T04:55:48;101122.78;;;19.82
51149;BMP280;37210;50.058;8.688;2023-06-24T04:58:15;101118.22;;;20.25
51149;BMP280;37210;50.058;8.688;2023-06-24T05:00:44;101109.66;;;20.46
51149;BMP280;37210;50.058;8.688;2023-06-24T05:03:12;101119.88;;;20.63
51149;BMP280;37210;50.058;8.688;2023-06-24T05:05:40;101096.34;;;20.48
51149;BMP280;37210;50.058;8.688;2023-06-24T05:08:08;101099.38;;;20.66
51149;BMP280;37210;50.058;8.688;2023-06-24T05:10:35;101083.91;;;20.81
51149;BMP280;37210;50.058;8.688;2023-06-24T05:13:03;101073.44;;;20.42
51149;BMP280;37210;50.058;8.688;2023-06-24T05:15:30;101104.47;;;21.35
51149;BMP280;37210;50.058;8.688;2023-06-24T05:17:57;101075.28;;;21.03
51149;BMP280;37210;50.058;8.688;2023-06-24T05:20:25;101114.47;;;21.57
51149;BMP280;37210;50.058;8.688;2023-06-24T05:22:53;101109.16;;;21.57
51149;BMP280;37210;50.058;8.688;2023-06-24T05:25:21;101118.19;;;21.22
51149;BMP280;37210;50.058;8.688;2023-06-24T05:27:49;101121.00;;;22.02
51149;BMP280;37210;50.058;8.688;2023-06-24T05:30:17;101104.91;;;22.31
51149;BMP280;37210;50.058;8.688;2023-06-24T05:32:44;101106.16;;;22.46
51149;BMP280;37210;50.058;8.688;2023-06-24T05:35:12;101112.03;;;22.31
51149;BMP280;37210;50.058;8.688;2023-06-24T05:37:39;101028.03;;;22.44
51149;BMP280;37210;50.058;8.688;2023-06-24T05:40:09;101127.16;;;22.81
51149;BMP280;37210;50.058;8.688;2023-06-24T05:42:38;101121.56;;;22.38
51149;BMP280;37210;50.058;8.688;2023-06-24T05:45:07;101104.94;;;23.27
51149;BMP280;37210;50.058;8.688;2023-06-24T05:47:36;101122.75;;;23.72
51149;BMP280;37210;50.058;8.688;2023-06-24T05:50:05;101122.44;;;24.02
51149;BMP280;37210;50.058;8.688;2023-06-24T05:52:33;101112.63;;;24.24
51149;BMP280;37210;50.058;8.688;2023-06-24T05:55:00;101113.63;;;24.41
51149;BMP280;37210;50.058;8.688;2023-06-24T05:57:29;101124.03;;;24.49
51149;BMP280;37210;50.058;8.688;2023-06-24T05:59:57;101122.50;;;24.84
51149;BMP280;37210;50.058;8.688;2023-06-24T06:02:24;101103.50;;;25.08
51149;BMP280;37210;50.058;8.688;2023-06-24T06:04:51;101108.38;;;25.37
51149;BMP280;37210;50.058;8.688;2023-06-24T06:07:19;101103.22;;;25.33
51149;BMP280;37210;50.058;8.688;2023-06-24T06:09:46;101101.13;;;25.21
51149;BMP280;37210;50.058;8.688;2023-06-24T06:12:13;101108.97;;;25.63
51149;BMP280;37210;50.058;8.688;2023-06-24T06:14:42;101115.66;;;24.97
51149;BMP280;37210;50.058;8.688;2023-06-24T06:17:13;101051.09;;;24.84
51149;BMP280;37210;50.058;8.688;2023-06-24T06:19:41;101111.44;;;25.49
51149;BMP280;37210;50.058;8.688;2023-06-24T06:22:12;101104.41;;;25.65
51149;BMP280;37210;50.058;8.688;2023-06-24T06:24:41;101106.25;;;25.81
51149;BMP280;37210;50.058;8.688;2023-06-24T06:27:09;101093.44;;;26.24
51149;BMP280;37210;50.058;8.688;2023-06-24T06:29:37;101095.25;;;26.40
51149;BMP280;37210;50.058;8.688;2023-06-24T06:32:06;101100.66;;;26.56
51149;BMP280;37210;50.058;8.688;2023-06-24T06:34:34;101097.44;;;26.83
51149;BMP280;37210;50.058;8.688;2023-06-24T06:37:06;101101.59;;;25.49
51149;BMP280;37210;50.058;8.688;2023-06-24T06:39:33;101100.28;;;26.63
51149;BMP280;37210;50.058;8.688;2023-06-24T06:42:00;101079.84;;;26.93
51149;BMP280;37210;50.058;8.688;2023-06-24T06:44:28;101036.22;;;26.90
51149;BMP280;37210;50.058;8.688;2023-06-24T06:46:55;101070.56;;;27.32
51149;BMP280;37210;50.058;8.688;2023-06-24T06:49:24;101078.09;;;27.10
51149;BMP280;37210;50.058;8.688;2023-06-24T06:51:54;101066.97;;;27.48
51149;BMP280;37210;50.058;8.688;2023-06-24T06:54:21;101090.44;;;27.76
51149;BMP280;37210;50.058;8.688;2023-06-24T06:56:49;101105.25;;;27.04
51149;BMP280;37210;50.058;8.688;2023-06-24T06:59:16;101103.63;;;27.81
51149;BMP280;37210;50.058;8.688;2023-06-24T07:01:43;101104.81;;;28.06
51149;BMP280;37210;50.058;8.688;2023-06-24T07:04:11;101104.97;;;28.19
51149;BMP280;37210;50.058;8.688;2023-06-24T07:06:40;101096.09;;;28.32
51149;BMP280;37210;50.058;8.688;2023-06-24T07:09:07;101050.38;;;28.17
51149;BMP280;37210;50.058;8.688;2023-06-24T07:11:35;101035.78;;;28.21
51149;BMP280;37210;50.058;8.688;2023-06-24T07:14:03;101004.75;;;28.15
51149;BMP280;37210;50.058;8.688;2023-06-24T07:16:30;101083.78;;;28.72
51149;BMP280;37210;50.058;8.688;2023-06-24T07:18:58;101090.09;;;27.98
51149;BMP280;37210;50.058;8.688;2023-06-24T07:21:26;101074.09;;;28.10
51149;BMP280;37210;50.058;8.688;2023-06-24T07:23:54;101082.53;;;28.64
51149;BMP280;37210;50.058;8.688;2023-06-24T07:26:22;101066.22;;;28.81
51149;BMP280;37210;50.058;8.688;2023-06-24T07:28:50;101079.13;;;29.18
51149;BMP280;37210;50.058;8.688;2023-06-24T07:31:17;101060.63;;;29.26
51149;BMP280;37210;50.058;8.688;2023-06-24T07:33:45;101052.81;;;29.21
51149;BMP280;37210;50.058;8.688;2023-06-24T07:36:12;101081.28;;;29.54
51149;BMP280;37210;50.058;8.688;2023-06-24T07:38:40;101076.31;;;29.60
51149;BMP280;37210;50.058;8.688;2023-06-24T07:41:10;101067.81;;;29.80
51149;BMP280;37210;50.058;8.688;2023-06-24T07:43:37;101081.13;;;29.96
51149;BMP280;37210;50.058;8.688;2023-06-24T07:46:06;101052.81;;;29.21
51149;BMP280;37210;50.058;8.688;2023-06-24T07:48:34;101079.53;;;29.93
51149;BMP280;37210;50.058;8.688;2023-06-24T07:51:02;101031.47;;;29.59
51149;BMP280;37210;50.058;8.688;2023-06-24T07:53:29;101044.00;;;29.87
51149;BMP280;37210;50.058;8.688;2023-06-24T07:55:59;100987.09;;;29.51
51149;BMP280;37210;50.058;8.688;2023-06-24T07:58:28;101068.78;;;30.06
51149;BMP280;37210;50.058;8.688;2023-06-24T08:00:56;101026.00;;;30.00
51149;BMP280;37210;50.058;8.688;2023-06-24T08:03:26;101079.00;;;30.40
51149;BMP280;37210;50.058;8.688;2023-06-24T08:05:54;101040.00;;;30.32
51149;BMP280;37210;50.058;8.688;2023-06-24T08:08:22;100997.00;;;30.16
51149;BMP280;37210;50.058;8.688;2023-06-24T08:10:49;101074.06;;;30.72
51149;BMP280;37210;50.058;8.688;2023-06-24T08:13:17;101035.56;;;30.18
51149;BMP280;37210;50.058;8.688;2023-06-24T08:15:46;101040.28;;;30.54
51149;BMP280;37210;50.058;8.688;2023-06-24T08:18:13;101042.28;;;30.75
51149;BMP280;37210;50.058;8.688;2023-06-24T08:20:42;101062.41;;;31.09
51149;BMP280;37210;50.058;8.688;2023-06-24T08:23:09;101000.06;;;30.74
51149;BMP280;37210;50.058;8.688;2023-06-24T08:25:37;101061.00;;;31.16
51149;BMP280;37210;50.058;8.688;2023-06-24T08:28:05;101019.59;;;31.03
51149;BMP280;37210;50.058;8.688;2023-06-24T08:30:32;101048.81;;;31.34
51149;BMP280;37210;50.058;8.688;2023-06-24T08:33:01;101077.06;;;31.30
51149;BMP280;37210;50.058;8.688;2023-06-24T08:35:29;101024.28;;;30.89
51149;BMP280;37210;50.058;8.688;2023-06-24T08:38:01;101007.41;;;30.98
51149;BMP280;37210;50.058;8.688;2023-06-24T08:40:34;100970.75;;;30.06
51149;BMP280;37210;50.058;8.688;2023-06-24T08:43:01;101034.88;;;30.92
51149;BMP280;37210;50.058;8.688;2023-06-24T08:45:29;100963.66;;;30.42
51149;BMP280;37210;50.058;8.688;2023-06-24T08:47:58;101070.63;;;31.08
51149;BMP280;37210;50.058;8.688;2023-06-24T08:50:34;100960.50;;;30.86
51149;BMP280;37210;50.058;8.688;2023-06-24T08:53:07;101061.00;;;31.52
51149;BMP280;37210;50.058;8.688;2023-06-24T08:55:39;101027.06;;;31.48
51149;BMP280;37210;50.058;8.688;2023-06-24T08:58:10;100958.91;;;30.58
51149;BMP280;37210;50.058;8.688;2023-06-24T09:00:39;101069.13;;;31.52
51149;BMP280;37210;50.058;8.688;2023-06-24T09:03:08;101069.91;;;31.29
51149;BMP280;37210;50.058;8.688;2023-06-24T09:05:36;101040.81;;;31.45
51149;BMP280;37210;50.058;8.688;2023-06-24T09:08:04;101000.25;;;31.45
51149;BMP280;37210;50.058;8.688;2023-06-24T09:10:33;101023.09;;;31.65
51149;BMP280;37210;50.058;8.688;2023-06-24T09:13:02;101003.00;;;31.57
51149;BMP280;37210;50.058;8.688;2023-06-24T09:15:30;101059.09;;;32.02
51149;BMP280;37210;50.058;8.688;2023-06-24T09:17:59;101039.69;;;32.08
51149;BMP280;37210;50.058;8.688;2023-06-24T09:20:29;101040.56;;;32.19
51149;BMP280;37210;50.058;8.688;2023-06-24T09:22:58;101007.78;;;32.00
51149;BMP280;37210;50.058;8.688;2023-06-24T09:25:26;101034.31;;;32.30
51149;BMP280;37210;50.058;8.688;2023-06-24T09:27:54;101010.91;;;32.18
51149;BMP280;37210;50.058;8.688;2023-06-24T09:30:22;101026.34;;;32.40
51149;BMP280;37210;50.058;8.688;2023-06-24T09:32:51;101024.00;;;32.35
51149;BMP280;37210;50.058;8.688;2023-06-24T09:35:20;101014.13;;;32.23
51149;BMP280;37210;50.058;8.688;2023-06-24T09:37:51;101025.47;;;32.28
51149;BMP280;37210;50.058;8.688;2023-06-24T09:40:19;101013.28;;;32.22
51149;BMP280;37210;50.058;8.688;2023-06-24T09:42:54;100999.34;;;32.16
51149;BMP280;37210;50.058;8.688;2023-06-24T09:45:30;101013.41;;;32.32
51149;BMP280;37210;50.058;8.688;2023-06-24T09:47:58;100966.59;;;31.13
51149;BMP280;37210;50.058;8.688;2023-06-24T09:50:27;100953.75;;;31.40
51149;BMP280;37210;50.058;8.688;2023-06-24T09:52:56;100946.09;;;30.37
51149;BMP280;37210;50.058;8.688;2023-06-24T09:55:27;100947.63;;;31.26
51149;BMP280;37210;50.058;8.688;2023-06-24T09:57:55;100908.13;;;30.63
51149;BMP280;37210;50.058;8.688;2023-06-24T10:00:24;100967.00;;;30.58
51149;BMP280;37210;50.058;8.688;2023-06-24T10:02:53;100991.72;;;30.65
51149;BMP280;37210;50.058;8.688;2023-06-24T10:05:21;100992.72;;;30.89
51149;BMP280;37210;50.058;8.688;2023-06-24T10:07:49;100989.53;;;31.08
51149;BMP280;37210;50.058;8.688;2023-06-24T10:10:18;100998.31;;;31.47
51149;BMP280;37210;50.058;8.688;2023-06-24T10:12:46;100988.78;;;31.66
51149;BMP280;37210;50.058;8.688;2023-06-24T10:15:14;100906.72;;;31.30
51149;BMP280;37210;50.058;8.688;2023-06-24T10:17:44;100982.34;;;31.79
51149;BMP280;37210;50.058;8.688;2023-06-24T10:20:13;100945.22;;;31.81
51149;BMP280;37210;50.058;8.688;2023-06-24T10:22:50;100975.31;;;31.77
51149;BMP280;37210;50.058;8.688;2023-06-24T10:25:20;100945.16;;;31.70
51149;BMP280;37210;50.058;8.688;2023-06-24T10:27:53;100975.28;;;31.29
51149;BMP280;37210;50.058;8.688;2023-06-24T10:30:21;100958.50;;;31.61
51149;BMP280;37210;50.058;8.688;2023-06-24T10:32:52;100965.72;;;31.73
51149;BMP280;37210;50.058;8.688;2023-06-24T10:35:24;100953.41;;;31.69
51149;BMP280;37210;50.058;8.688;2023-06-24T10:37:56;100961.28;;;31.72
51149;BMP280;37210;50.058;8.688;2023-06-24T10:40:38;100957.59;;;31.73
51149;BMP280;37210;50.058;8.688;2023-06-24T10:43:27;100955.25;;;31.68
51149;BMP280;37210;50.058;8.688;2023-06-24T10:45:57;100939.81;;;31.58
51149;BMP280;37210;50.058;8.688;2023-06-24T10:48:25;100891.44;;;31.18
51149;BMP280;37210;50.058;8.688;2023-06-24T10:50:53;100955.25;;;31.44
51149;BMP280;37210;50.058;8.688;2023-06-24T10:53:21;100941.38;;;31.49
51149;BMP280;37210;50.058;8.688;2023-06-24T10:55:50;100946.66;;;31.50
51149;BMP280;37210;50.058;8.688;2023-06-24T10:58:17;100947.94;;;31.58
51149;BMP280;37210;50.058;8.688;2023-06-24T11:00:45;100938.09;;;31.57
51149;BMP280;37210;50.058;8.688;2023-06-24T11:03:14;100888.69;;;31.07
51149;BMP280;37210;50.058;8.688;2023-06-24T11:05:44;100923.66;;;31.45
51149;BMP280;37210;50.058;8.688;2023-06-24T11:08:12;100917.41;;;31.44
51149;BMP280;37210;50.058;8.688;2023-06-24T11:10:44;100920.91;;;31.58
51149;BMP280;37210;50.058;8.688;2023-06-24T11:13:13;100911.69;;;31.60
51149;BMP280;37210;50.058;8.688;2023-06-24T11:15:41;100923.25;;;31.62
51149;BMP280;37210;50.058;8.688;2023-06-24T11:18:09;100931.09;;;31.54
51149;BMP280;37210;50.058;8.688;2023-06-24T11:20:37;100910.03;;;31.46
51149;BMP280;37210;50.058;8.688;2023-06-24T11:23:09;100927.91;;;31.60
51149;BMP280;37210;50.058;8.688;2023-06-24T11:25:41;100907.50;;;31.67
51149;BMP280;37210;50.058;8.688;2023-06-24T11:28:16;100874.81;;;31.35
51149;BMP280;37210;50.058;8.688;2023-06-24T11:30:44;100918.94;;;31.60
51149;BMP280;37210;50.058;8.688;2023-06-24T11:33:12;100907.44;;;31.45
51149;BMP280;37210;50.058;8.688;2023-06-24T11:35:39;100891.56;;;30.93
51149;BMP280;37210;50.058;8.688;2023-06-24T11:38:08;100897.16;;;30.54
51149;BMP280;37210;50.058;8.688;2023-06-24T11:40:36;100897.38;;;30.38
51149;BMP280;37210;50.058;8.688;2023-06-24T11:43:03;100899.53;;;30.33
51149;BMP280;37210;50.058;8.688;2023-06-24T11:45:32;100888.09;;;30.30
51149;BMP280;37210;50.058;8.688;2023-06-24T11:48:03;100895.75;;;30.85
51149;BMP280;37210;50.058;8.688;2023-06-24T11:50:31;100889.59;;;30.83
51149;BMP280;37210;50.058;8.688;2023-06-24T11:52:59;100891.31;;;30.96
51149;BMP280;37210;50.058;8.688;2023-06-24T11:55:27;100891.00;;;30.88
51149;BMP280;37210;50.058;8.688;2023-06-24T11:57:56;100876.66;;;30.75
51149;BMP280;37210;50.058;8.688;2023-06-24T12:00:27;100879.75;;;30.58
51149;BMP280;37210;50.058;8.688;2023-06-24T12:02:58;100873.72;;;30.42
51149;BMP280;37210;50.058;8.688;2023-06-24T12:05:28;100882.25;;;30.11
51149;BMP280;37210;50.058;8.688;2023-06-24T12:07:58;100845.97;;;30.15
51149;BMP280;37210;50.058;8.688;2023-06-24T12:10:27;100866.44;;;30.55
51149;BMP280;37210;50.058;8.688;2023-06-24T12:12:56;100877.97;;;30.69
51149;BMP280;37210;50.058;8.688;2023-06-24T12:15:25;100872.84;;;30.77
51149;BMP280;37210;50.058;8.688;2023-06-24T12:17:53;100860.75;;;30.83
51149;BMP280;37210;50.058;8.688;2023-06-24T12:20:21;100867.56;;;30.89
51149;BMP280;37210;50.058;8.688;2023-06-24T12:22:49;100883.88;;;30.00
51149;BMP280;37210;50.058;8.688;2023-06-24T12:25:17;100875.53;;;30.54
51149;BMP280;37210;50.058;8.688;2023-06-24T12:27:45;100860.97;;;30.31
51149;BMP280;37210;50.058;8.688;2023-06-24T12:30:14;100854.41;;;29.97
51149;BMP280;37210;50.058;8.688;2023-06-24T12:32:42;100826.13;;;30.03
51149;BMP280;37210;50.058;8.688;2023-06-24T12:35:10;100844.97;;;30.53
51149;BMP280;37210;50.058;8.688;2023-06-24T12:37:40;100843.53;;;30.60
51149;BMP280;37210;50.058;8.688;2023-06-24T12:40:08;100838.09;;;30.73
51149;BMP280;37210;50.058;8.688;2023-06-24T12:42:36;100841.44;;;30.89
51149;BMP280;37210;50.058;8.688;2023-06-24T12:45:05;100826.06;;;30.90
51149;BMP280;37210;50.058;8.688;2023-06-24T12:47:33;100840.50;;;31.01
51149;BMP280;37210;50.058;8.688;2023-06-24T12:50:08;100836.44;;;30.83
51149;BMP280;37210;50.058;8.688;2023-06-24T12:52:36;100833.13;;;30.67
51149;BMP280;37210;50.058;8.688;2023-06-24T12:55:07;100833.31;;;30.28
51149;BMP280;37210;50.058;8.688;2023-06-24T12:57:36;100837.94;;;30.51
51149;BMP280;37210;50.058;8.688;2023-06-24T13:00:05;100829.50;;;30.55
51149;BMP280;37210;50.058;8.688;2023-06-24T13:02:34;100799.09;;;30.41
51149;BMP280;37210;50.058;8.688;2023-06-24T13:05:04;100823.91;;;30.82
51149;BMP280;37210;50.058;8.688;2023-06-24T13:07:33;100805.31;;;30.90
51149;BMP280;37210;50.058;8.688;2023-06-24T13:10:01;100784.34;;;30.94
51149;BMP280;37210;50.058;8.688;2023-06-24T13:12:33;100816.59;;;31.19
51149;BMP280;37210;50.058;8.688;2023-06-24T13:15:02;100818.53;;;31.06
51149;BMP280;37210;50.058;8.688;2023-06-24T13:17:33;100804.56;;;31.12
51149;BMP280;37210;50.058;8.688;2023-06-24T13:20:06;100814.53;;;31.22
51149;BMP280;37210;50.058;8.688;2023-06-24T13:22:34;100814.91;;;30.94
51149;BMP280;37210;50.058;8.688;2023-06-24T13:25:03;100814.16;;;30.92
51149;BMP280;37210;50.058;8.688;2023-06-24T13:27:32;100812.47;;;31.02
51149;BMP280;37210;50.058;8.688;2023-06-24T13:30:00;100804.22;;;30.56
51149;BMP280;37210;50.058;8.688;2023-06-24T13:32:30;100821.78;;;30.38
51149;BMP280;37210;50.058;8.688;2023-06-24T13:34:57;100801.97;;;29.76
51149;BMP280;37210;50.058;8.688;2023-06-24T13:37:25;100808.19;;;30.15
51149;BMP280;37210;50.058;8.688;2023-06-24T13:39:52;100801.31;;;29.73
51149;BMP280;37210;50.058;8.688;2023-06-24T13:42:21;100813.53;;;29.78
51149;BMP280;37210;50.058;8.688;2023-06-24T13:44:53;100811.56;;;30.06
51149;BMP280;37210;50.058;8.688;2023-06-24T13:47:21;100812.09;;;30.11
51149;BMP280;37210;50.058;8.688;2023-06-24T13:49:49;100778.66;;;29.75
51149;BMP280;37210;50.058;8.688;2023-06-24T13:52:18;100807.38;;;30.02
51149;BMP280;37210;50.058;8.688;2023-06-24T13:54:46;100817.56;;;30.22
51149;BMP280;37210;50.058;8.688;2023-06-24T13:57:14;100809.28;;;30.25
51149;BMP280;37210;50.058;8.688;2023-06-24T13:59:43;100810.88;;;30.40
51149;BMP280;37210;50.058;8.688;2023-06-24T14:02:12;100803.97;;;30.11
51149;BMP280;37210;50.058;8.688;2023-06-24T14:04:40;100792.47;;;29.96
51149;BMP280;37210;50.058;8.688;2023-06-24T14:07:18;100774.75;;;29.92
51149;BMP280;37210;50.058;8.688;2023-06-24T14:09:47;100792.47;;;29.96